createdAt,value
2022-11-15T00:02:37.272Z,100536.41
2022-11-15T00:05:23.911Z,100537.84
2022-11-15T00:08:10.540Z,100533.13
2022-11-15T00:10:57.551Z,100523.81
2022-11-15T00:13:45.068Z,100525.25
2022-11-15T00:16:31.438Z,100526.97
2022-11-15T00:19:18.268Z,100531.31
2022-11-15T00:22:04.540Z,100523.84
2022-11-15T00:24:50.641Z,100524.56
2022-11-15T00:27:37.036Z,100527.03
2022-11-15T00:30:24.783Z,100533.94
2022-11-15T00:33:11.860Z,100532.78
2022-11-15T00:36:03.203Z,100526.06
2022-11-15T00:38:51.709Z,100529.66
2022-11-15T00:41:37.822Z,100529.38
2022-11-15T00:44:24.116Z,100526.38
2022-11-15T00:47:11.665Z,100531.41
2022-11-15T00:49:58.136Z,100523.06
2022-11-15T00:52:44.679Z,100530.13
2022-11-15T00:55:31.043Z,100536.16
2022-11-15T00:58:17.279Z,100526.84
2022-11-15T01:01:10.898Z,100530.88
2022-11-15T01:04:01.575Z,100520.78
2022-11-15T01:06:48.207Z,100526.13
2022-11-15T01:09:34.950Z,100526.88
2022-11-15T01:12:21.468Z,100516.53
2022-11-15T01:15:08.382Z,100521.81
2022-11-15T01:17:54.760Z,100508.00
2022-11-15T01:20:43.713Z,100506.75
2022-11-15T01:23:30.333Z,100504.13
2022-11-15T01:26:18.115Z,100510.34
2022-11-15T01:29:04.965Z,100511.91
2022-11-15T01:31:51.236Z,100510.91
2022-11-15T01:34:37.416Z,100514.50
2022-11-15T01:37:25.056Z,100506.03
2022-11-15T01:40:12.490Z,100503.97
2022-11-15T01:42:58.900Z,100498.50
2022-11-15T01:45:48.015Z,100507.44
2022-11-15T01:48:35.864Z,100499.97
2022-11-15T01:51:25.431Z,100505.19
2022-11-15T01:54:16.859Z,100505.03
2022-11-15T01:57:06.181Z,100491.34
2022-11-15T01:59:52.532Z,100489.47
2022-11-15T02:02:40.278Z,100490.22
2022-11-15T02:05:26.850Z,100482.88
2022-11-15T02:08:21.020Z,100492.69
2022-11-15T02:11:11.241Z,100473.38
2022-11-15T02:13:59.147Z,100472.34
2022-11-15T02:16:54.860Z,100472.94
2022-11-15T02:20:30.719Z,100459.53
2022-11-15T02:23:47.152Z,100462.13
2022-11-15T02:27:01.667Z,100463.56
2022-11-15T02:30:05.684Z,100459.84
2022-11-15T02:32:59.109Z,100457.78
2022-11-15T02:35:56.964Z,100457.50
2022-11-15T02:38:48.571Z,100454.63
2022-11-15T02:41:43.995Z,100455.38
2022-11-15T02:44:35.527Z,100454.31
2022-11-15T02:47:23.024Z,100456.91
2022-11-15T02:50:14.653Z,100456.66
2022-11-15T02:53:01.063Z,100446.56
2022-11-15T02:55:51.278Z,100445.41
2022-11-15T02:58:54.569Z,100447.69
2022-11-15T03:01:52.884Z,100458.66
2022-11-15T03:04:46.110Z,100457.50
2022-11-15T03:07:40.017Z,100457.31
2022-11-15T03:10:34.329Z,100456.31
2022-11-15T03:13:28.223Z,100452.44
2022-11-15T03:16:23.202Z,100447.69
2022-11-15T03:19:16.538Z,100454.72
2022-11-15T03:22:07.149Z,100442.06
2022-11-15T03:24:59.358Z,100446.22
2022-11-15T03:27:50.877Z,100451.56
2022-11-15T03:30:41.195Z,100444.19
2022-11-15T03:33:29.654Z,100433.25
2022-11-15T03:36:17.549Z,100434.97
2022-11-15T03:39:09.740Z,100430.19
2022-11-15T03:42:06.817Z,100421.84
2022-11-15T03:45:02.852Z,100421.84
2022-11-15T03:47:53.636Z,100429.91
2022-11-15T03:50:40.614Z,100418.09
2022-11-15T03:53:27.104Z,100423.56
2022-11-15T03:56:15.101Z,100421.69
2022-11-15T03:59:02.939Z,100422.41
2022-11-15T04:01:49.474Z,100423.28
2022-11-15T04:04:35.787Z,100418.66
2022-11-15T04:07:24.179Z,100424.00
2022-11-15T04:10:12.191Z,100418.34
2022-11-15T04:12:58.629Z,100412.00
2022-11-15T04:15:46.308Z,100413.59
2022-11-15T04:18:32.645Z,100410.13
2022-11-15T04:21:36.192Z,100404.50
2022-11-15T04:24:22.865Z,100413.72
2022-11-15T04:27:11.068Z,100400.91
2022-11-15T04:29:59.015Z,100412.44
2022-11-15T04:32:46.764Z,100414.31
2022-11-15T04:35:33.199Z,100408.84
2022-11-15T04:38:19.769Z,100408.69
2022-11-15T04:41:06.301Z,100413.16
2022-11-15T08:19:05.504Z,100500.88
2022-11-15T08:21:53.756Z,100494.16
2022-11-15T08:24:40.691Z,100496.97
2022-11-15T08:27:37.819Z,100494.38
2022-11-15T08:30:25.046Z,100491.63
2022-11-15T08:33:13.562Z,100494.78
2022-11-15T08:36:01.068Z,100486.41
2022-11-15T08:38:48.957Z,100492.59
2022-11-15T08:41:38.780Z,100484.25
2022-11-15T08:44:27.612Z,100484.09
2022-11-15T08:47:14.720Z,100479.16
2022-11-15T08:50:04.450Z,100470.31
2022-11-15T08:52:51.628Z,100475.50
2022-11-15T08:55:40.824Z,100471.13
2022-11-15T08:58:27.342Z,100457.13
2022-11-15T09:01:18.666Z,100466.31
2022-11-15T09:04:05.969Z,100464.25
2022-11-15T09:07:28.206Z,100463.31
2022-11-15T09:10:15.455Z,100457.69
2022-11-15T09:13:03.754Z,100467.88
2022-11-15T09:15:50.683Z,100468.13
2022-11-15T09:18:37.408Z,100464.06
2022-11-15T09:21:25.244Z,100461.56
2022-11-15T09:24:12.059Z,100451.84
2022-11-15T09:27:00.556Z,100460.47
2022-11-15T09:29:50.132Z,100457.13
2022-11-15T09:32:39.436Z,100458.53
2022-11-15T09:35:26.572Z,100453.41
2022-11-15T09:38:13.414Z,100446.41
2022-11-15T09:41:19.930Z,100451.97
2022-11-15T09:44:37.380Z,100451.53
2022-11-15T09:47:43.311Z,100445.38
2022-11-15T09:50:43.778Z,100432.19
2022-11-15T09:53:18.645Z,100420.56
2022-11-15T09:56:08.423Z,100421.06
2022-11-15T09:58:46.469Z,100413.38
2022-11-15T10:01:30.680Z,100412.91
2022-11-15T10:04:49.403Z,100408.09
2022-11-15T10:14:03.526Z,100396.69
2022-11-15T10:17:05.013Z,100391.84
2022-11-15T10:19:40.825Z,100380.56
2022-11-15T10:22:26.526Z,100380.06
2022-11-15T10:25:13.278Z,100382.47
2022-11-15T10:27:42.931Z,100384.19
2022-11-15T10:30:18.770Z,100373.56
2022-11-15T10:32:50.472Z,100368.63
2022-11-15T10:35:22.352Z,100370.03
2022-11-15T10:38:06.996Z,100360.56
2022-11-15T10:40:36.233Z,100377.25
2022-11-15T10:43:15.636Z,100372.16
2022-11-15T10:45:44.171Z,100369.03
2022-11-15T10:48:27.921Z,100361.00
2022-11-15T10:50:57.023Z,100356.00
2022-11-15T10:53:34.099Z,100353.63
2022-11-15T10:56:06.274Z,100347.78
2022-11-15T10:58:40.133Z,100330.09
2022-11-15T11:01:12.809Z,100341.09
2022-11-15T11:03:41.435Z,100325.75
2022-11-15T11:06:12.605Z,100328.19
2022-11-15T11:08:42.069Z,100329.94
2022-11-15T11:11:11.391Z,100322.38
2022-11-15T11:13:44.116Z,100319.09
2022-11-15T11:16:21.453Z,100325.59
2022-11-15T11:18:58.803Z,100328.91
2022-11-15T11:21:40.125Z,100315.31
2022-11-15T11:24:21.370Z,100307.56
2022-11-15T11:27:01.771Z,100310.69
2022-11-15T11:29:43.945Z,100316.50
2022-11-15T11:32:29.010Z,100310.53
2022-11-15T11:35:09.221Z,100310.00
2022-11-15T11:37:46.123Z,100299.31
2022-11-15T11:40:26.706Z,100290.38
2022-11-15T11:43:02.553Z,100295.72
2022-11-15T11:46:00.275Z,100298.97
2022-11-15T11:48:42.114Z,100301.38
2022-11-15T11:51:17.953Z,100297.38
2022-11-15T11:53:54.278Z,100299.81
2022-11-15T11:56:29.652Z,100290.50
2022-11-15T11:59:02.800Z,100289.66
2022-11-15T12:01:38.178Z,100289.66
2022-11-15T12:04:14.102Z,100282.41
2022-11-15T12:06:49.848Z,100289.66
2022-11-15T12:09:23.301Z,100277.78
2022-11-15T12:12:01.170Z,100265.72
2022-11-15T12:14:38.362Z,100261.06
2022-11-15T12:17:06.405Z,100255.91
2022-11-15T12:19:35.871Z,100258.31
2022-11-15T12:22:12.953Z,100237.63
2022-11-15T12:24:45.606Z,100235.56
2022-11-15T12:27:23.400Z,100232.03
2022-11-15T12:29:58.522Z,100231.78
2022-11-15T12:32:30.751Z,100232.28
2022-11-15T12:34:59.901Z,100241.59
2022-11-15T12:37:59.467Z,100220.75
2022-11-15T12:40:39.052Z,100223.16
2022-11-15T12:43:42.449Z,100232.47
2022-11-15T12:46:15.375Z,100204.84
2022-11-15T12:49:01.871Z,100201.31
2022-11-15T12:52:07.047Z,100190.81
2022-11-15T12:55:01.160Z,100182.03
2022-11-15T12:57:41.180Z,100189.28
2022-11-15T13:00:43.035Z,100174.97
2022-11-15T13:03:27.070Z,100162.75
2022-11-15T13:06:11.823Z,100164.47
2022-11-15T13:08:50.069Z,100154.13
2022-11-15T13:11:52.645Z,100147.94
2022-11-15T13:14:57.344Z,100140.22
2022-11-15T13:17:28.776Z,100136.25
2022-11-15T13:20:01.938Z,100137.97
2022-11-15T13:22:47.792Z,100140.38
2022-11-15T13:25:23.698Z,100130.22
2022-11-15T13:27:53.217Z,100138.88
2022-11-15T13:30:23.295Z,100128.03
2022-11-15T13:32:53.574Z,100128.19
2022-11-15T13:35:25.741Z,100129.22
2022-11-15T13:37:55.494Z,100114.28
2022-11-15T13:40:31.287Z,100112.56
2022-11-15T13:43:00.075Z,100108.47
2022-11-15T13:45:29.486Z,100101.59
2022-11-15T13:47:59.765Z,100106.22
2022-11-15T13:50:33.082Z,100099.19
2022-11-15T13:53:04.316Z,100093.19
2022-11-15T13:55:34.996Z,100088.16
2022-11-15T13:58:07.272Z,100089.41
2022-11-15T14:00:45.743Z,100086.13
2022-11-15T14:03:21.380Z,100071.50
2022-11-15T14:06:08.925Z,100078.59
2022-11-15T14:08:37.545Z,100055.88
2022-11-15T14:11:11.697Z,100067.75
2022-11-15T14:13:39.707Z,100058.31
2022-11-15T14:16:19.511Z,100058.31
2022-11-15T14:18:51.740Z,100052.47
2022-11-15T14:21:22.518Z,100038.22
2022-11-15T14:23:52.655Z,100044.09
2022-11-15T14:26:31.599Z,100036.50
2022-11-15T14:29:19.670Z,100037.22
2022-11-15T14:31:47.957Z,100024.69
2022-11-15T14:34:15.772Z,100013.66
2022-11-15T14:36:45.349Z,100023.47
2022-11-15T14:39:13.150Z,100013.84
2022-11-15T14:41:41.065Z,100018.47
2022-11-15T14:44:13.037Z,100014.88
2022-11-15T14:46:41.045Z,100005.44
2022-11-15T14:49:09.014Z,100005.44
2022-11-15T14:51:39.324Z,99998.06
2022-11-15T14:54:11.433Z,99984.28
2022-11-15T14:56:39.416Z,99996.03
2022-11-15T14:59:08.899Z,99988.81
2022-11-15T15:01:36.950Z,99990.31
2022-11-15T15:04:05.147Z,99987.78
2022-11-15T15:06:33.128Z,99978.66
2022-11-15T15:09:01.061Z,99981.56
2022-11-15T15:11:33.499Z,99971.44
2022-11-15T15:14:02.179Z,99975.56
2022-11-15T15:16:30.153Z,99970.06
2022-11-15T15:18:58.167Z,99960.47
2022-11-15T15:21:36.936Z,99953.72
2022-11-15T15:24:05.782Z,99951.19
2022-11-15T15:26:37.971Z,99946.88
2022-11-15T15:29:09.924Z,99945.50
2022-11-15T15:31:37.835Z,99936.59
2022-11-15T15:34:13.642Z,99930.91
2022-11-15T15:36:59.070Z,99929.38
2022-11-15T15:39:27.376Z,99919.75
2022-11-15T15:41:57.573Z,99928.69
2022-11-15T15:44:25.949Z,99928.88
2022-11-15T15:46:53.764Z,99911.69
2022-11-15T15:49:21.922Z,99925.63
2022-11-15T15:51:50.049Z,99922.19
2022-11-15T15:54:18.234Z,99918.59
2022-11-15T15:56:46.280Z,99914.13
2022-11-15T15:59:15.617Z,99918.41
2022-11-15T16:01:43.513Z,99910.50
2022-11-15T16:04:11.498Z,99907.06
2022-11-15T16:06:45.160Z,99909.66
2022-11-15T16:09:17.036Z,99906.03
2022-11-15T16:11:47.574Z,99896.44
2022-11-15T16:14:16.909Z,99897.13
2022-11-15T16:16:45.161Z,99892.84
2022-11-15T16:19:16.016Z,99886.47
2022-11-15T16:21:43.957Z,99898.34
2022-11-15T16:24:11.907Z,99894.91
2022-11-15T16:26:40.336Z,99890.25
2022-11-15T16:29:10.160Z,99890.41
2022-11-15T16:31:39.823Z,99893.16
2022-11-15T16:34:08.098Z,99876.81
2022-11-15T16:36:37.159Z,99874.28
2022-11-15T16:39:07.874Z,99881.66
2022-11-15T16:41:35.948Z,99881.84
2022-11-15T16:44:06.895Z,99888.03
2022-11-15T16:46:38.898Z,99882.88
2022-11-15T16:49:06.822Z,99884.59
2022-11-15T16:51:38.010Z,99881.84
2022-11-15T16:54:06.211Z,99880.97
2022-11-15T16:56:34.780Z,99875.81
2022-11-15T16:59:03.388Z,99877.53
2022-11-15T17:01:33.503Z,99874.78
2022-11-15T17:04:12.495Z,99878.41
2022-11-15T17:06:40.753Z,99880.47
2022-11-15T17:09:12.175Z,99867.56
2022-11-15T17:11:41.801Z,99865.84
2022-11-15T17:14:09.667Z,99872.22
2022-11-15T17:16:38.238Z,99870.50
2022-11-15T17:19:07.672Z,99876.84
2022-11-15T17:21:35.732Z,99880.63
2022-11-15T17:24:03.621Z,99873.44
2022-11-15T17:26:36.094Z,99877.06
2022-11-15T17:29:10.004Z,99882.34
2022-11-15T17:31:38.819Z,99878.94
2022-11-15T17:34:08.365Z,99884.25
2022-11-15T17:36:36.317Z,99882.72
2022-11-15T17:39:04.772Z,99873.44
2022-11-15T17:41:34.216Z,99875.34
2022-11-15T17:44:03.525Z,99880.84
2022-11-15T17:46:32.447Z,99874.47
2022-11-15T17:49:00.322Z,99873.63
2022-11-15T17:51:29.572Z,99877.06
2022-11-15T17:53:57.598Z,99865.53
2022-11-15T17:56:28.636Z,99869.84
2022-11-15T17:58:58.909Z,99866.22
2022-11-15T18:01:28.254Z,99870.00
2022-11-15T18:03:57.375Z,99865.38
2022-11-15T18:06:26.320Z,99855.41
2022-11-15T18:08:56.667Z,99858.00
2022-11-15T18:11:27.052Z,99849.75
2022-11-15T18:13:56.747Z,99855.41
2022-11-15T18:16:26.317Z,99853.53
2022-11-15T18:18:54.584Z,99850.94
2022-11-15T18:21:24.519Z,99850.94
2022-11-15T18:23:56.823Z,99841.66
2022-11-15T18:26:27.747Z,99833.94
2022-11-15T18:28:57.749Z,99845.63
2022-11-15T18:31:27.113Z,99833.94
2022-11-15T18:33:55.819Z,99828.81
2022-11-15T18:36:25.374Z,99830.72
2022-11-15T18:38:57.356Z,99827.97
2022-11-15T18:41:28.418Z,99827.81
2022-11-15T18:43:57.031Z,99825.06
2022-11-15T18:46:26.528Z,99821.47
2022-11-15T18:48:55.405Z,99813.56
2022-11-15T18:51:24.977Z,99815.63
2022-11-15T18:53:54.627Z,99814.97
2022-11-15T18:56:24.963Z,99808.78
2022-11-15T18:58:55.134Z,99814.63
2022-11-15T19:01:24.884Z,99799.53
2022-11-15T19:03:54.521Z,99806.06
2022-11-15T19:06:23.869Z,99801.59
2022-11-15T19:08:54.627Z,99795.59
2022-11-15T19:11:27.986Z,99801.28
2022-11-15T19:13:57.132Z,99799.91
2022-11-15T19:16:25.317Z,99796.47
2022-11-15T19:18:55.054Z,99805.72
2022-11-15T19:21:23.427Z,99797.34
2022-11-15T19:23:52.965Z,99791.19
2022-11-15T19:26:21.825Z,99792.72
2022-11-15T19:28:54.510Z,99788.63
2022-11-15T19:31:24.265Z,99782.47
2022-11-15T19:33:52.705Z,99790.50
2022-11-15T19:36:22.445Z,99783.16
2022-11-15T19:38:50.602Z,99785.91
2022-11-15T19:41:20.404Z,99784.69
2022-11-15T19:43:50.860Z,99788.97
2022-11-15T19:46:23.417Z,99788.66
2022-11-15T19:48:52.351Z,99791.41
2022-11-15T19:51:22.612Z,99789.84
2022-11-15T19:53:52.695Z,99784.84
2022-11-15T19:56:22.109Z,99784.34
2022-11-15T19:58:53.207Z,99783.81
2022-11-15T20:01:23.742Z,99781.25
2022-11-15T20:03:54.465Z,99770.97
2022-11-15T20:06:24.505Z,99772.00
2022-11-15T20:08:52.493Z,99768.75
2022-11-15T20:11:20.916Z,99767.19
2022-11-15T20:13:51.677Z,99763.41
2022-11-15T20:16:21.073Z,99762.03
2022-11-15T20:18:51.704Z,99763.09
2022-11-15T20:21:20.732Z,99754.16
2022-11-15T20:23:50.642Z,99759.97
2022-11-15T20:26:18.928Z,99763.75
2022-11-15T20:28:47.942Z,99760.50
2022-11-15T20:31:16.124Z,99745.94
2022-11-15T20:33:44.175Z,99748.84
2022-11-15T20:36:15.575Z,99747.97
2022-11-15T20:38:43.857Z,99744.53
2022-11-15T20:41:11.933Z,99749.16
2022-11-15T20:43:43.264Z,99744.91
2022-11-15T20:46:11.448Z,99738.72
2022-11-15T20:48:39.558Z,99746.25
2022-11-15T20:51:09.399Z,99738.88
2022-11-15T20:53:38.649Z,99741.63
2022-11-15T20:56:08.845Z,99738.19
2022-11-15T20:58:37.392Z,99732.03
2022-11-15T21:01:06.207Z,99726.56
2022-11-15T21:03:34.957Z,99731.19
2022-11-15T21:06:03.078Z,99726.72
2022-11-15T21:08:52.440Z,99725.88
2022-11-15T21:11:40.007Z,99734.09
2022-11-15T21:14:09.693Z,99712.28
2022-11-15T21:16:37.731Z,99719.66
2022-11-15T21:19:06.606Z,99727.88
2022-11-15T21:21:34.619Z,99716.91
2022-11-15T21:24:04.149Z,99716.75
2022-11-15T21:26:33.865Z,99723.25
2022-11-15T21:29:02.271Z,99716.06
2022-11-15T21:31:30.180Z,99714.34
2022-11-15T21:33:57.967Z,99713.66
2022-11-15T21:36:26.049Z,99712.63
2022-11-15T21:38:54.632Z,99703.72
2022-11-15T21:41:22.505Z,99703.53
2022-11-15T21:43:51.724Z,99701.66
2022-11-15T21:46:19.630Z,99695.69
2022-11-15T21:48:47.575Z,99695.69
2022-11-15T21:51:15.555Z,99687.78
2022-11-15T21:53:43.436Z,99686.22
2022-11-15T21:56:12.191Z,99689.16
2022-11-15T21:58:40.763Z,99682.97
2022-11-15T22:01:29.588Z,99682.13
2022-11-15T22:03:57.735Z,99687.44
2022-11-15T22:06:25.804Z,99676.31
2022-11-15T22:08:53.677Z,99664.66
2022-11-15T22:11:21.703Z,99672.88
2022-11-15T22:13:49.503Z,99672.00
2022-11-15T22:16:18.873Z,99662.78
2022-11-15T22:18:47.231Z,99661.06
2022-11-15T22:21:17.732Z,99662.78
2022-11-15T22:23:46.841Z,99662.78
2022-11-15T22:26:22.074Z,99663.63
2022-11-15T22:28:51.449Z,99651.97
2022-11-15T22:31:21.011Z,99653.69
2022-11-15T22:33:48.974Z,99655.56
2022-11-15T22:36:17.006Z,99650.25
2022-11-15T22:38:44.993Z,99647.53
2022-11-15T22:41:12.954Z,99636.72
2022-11-15T22:43:41.121Z,99646.81
2022-11-15T22:46:09.270Z,99637.09
2022-11-15T22:48:39.777Z,99636.88
2022-11-15T22:51:08.204Z,99632.63
2022-11-15T22:53:36.204Z,99631.78
2022-11-15T22:56:06.543Z,99627.16
2022-11-15T22:58:35.203Z,99621.84
2022-11-15T23:01:05.017Z,99620.97
2022-11-15T23:03:34.402Z,99624.75
2022-11-15T23:06:05.854Z,99619.25
2022-11-15T23:08:34.298Z,99604.72
2022-11-15T23:11:20.488Z,99612.06
2022-11-15T23:13:51.159Z,99608.66
2022-11-15T23:16:25.915Z,99605.06
2022-11-15T23:18:55.765Z,99605.94
2022-11-15T23:21:52.726Z,99598.38
2022-11-15T23:45:39.088Z,99584.16
2022-11-15T23:48:07.964Z,99583.28
2022-11-15T23:50:36.427Z,99580.41
